Redding, CA

8:21 AM PDT on August 22, 2014 (GMT -0700)
Redding Municipal | Change Station
CLOSE
Current Station
Airport
Location: Redding,
Elevation: 502 ft
Nearby Weather Stations

Elev 502 ft 40.51 °N, 122.30 °W | Updated 28 minutes ago

Clear
Clear
70 °F
Feels Like 70 °F
N
5
Wind Variable Wind from NNW

Today
High -- | Low -- °F
--% Chance of Precip.
Yesterday
High -- | Low -- °F
Precip. -- in
6:26 AM 7:56 PM
Waning Crescent, 8% visible
Pressure 29.89 in
Visibility 10.0 miles
Clouds Clear
Dew Point 52 °F
Humidity 53%
Rainfall 0.00 in
Snow Depth Not available.
UV 1 out of 12
Pollen 7.80 out of 12
Air Quality Not available.
Flu Activity Not available.
METAR KRDD 221453Z AUTO 33004KT 10SM CLR 21/11 A2989

More Conditions Fewer Conditions

Pressure 29.89 in
Visibility 10.0 miles
Clouds Clear
Dew Point 52 °F
Humidity 53%
Rainfall 0.00 in
Snow Depth Not available.
UV 1 out of 12
Pollen 7.80 out of 12
Air Quality Not available.
Flu Activity Not available.
METAR KRDD 221453Z AUTO 33004KT 10SM CLR 21/11 A2989

More Conditions Fewer Conditions

10-Day Weather Forecast

Almanac

Astronomy

Aug. 22, 2014 Rise Set
Actual Time 6:26 AM PDT 7:56 PM PDT
Civil Twilight 5:58 AM PDT 8:25 PM PDT
Nautical Twilight 5:23 AM PDT 8:59 PM PDT
Astronomical Twilight 4:46 AM PDT 9:35 PM PDT
Moon 3:53 AM PDT 6:08 PM PDT
Length of Visible Light 14h 27m
Length of Day
13h 29m
Tomorrow will be 2m 29s shorter.
Waning Crescent, 8% of the Moon is Illuminated
Today
Waning Crescent
Aug 25
New
Sep 2
First Quarter
Sep 8
Full
Sep 15
Last Quarter

Today's Extremes

State Highs State Lows

Community

WunderPhotos

Upload Photos

1,746,187 photos uploaded!

WunderBlogs® & News

Nearby

Snow Depth

Station Depth Elevation
Adin Mountain 0 in 6200 ft
Crowder Flat 0 in 5100 ft
Cedar Pass 1 in 7100 ft
Independence Creek 0 in 6500 ft
CSS Lab 2 in 6900 ft

Earthquake Activity

City Distance Mag. Time & Date
No recent earthquake activity has been reported nearby.
Minimum magnitude displayed is 2.5.

Coastal Water Temperatures

Place Temperature
No Stations Reporting

Nearby Weather Stations